Time;durP1;ratioP1;P1;durP2;ratioP2;P2;SDS_P1;SDS_P2;PMS_P1;PMS_P2;Temp;Humidity;BMP_temperature;BMP_pressure;BME280_temperature;BME280_humidity;BME280_pressure;Samples;Min_cycle;Max_cycle;Signal;HPM_P1;HPM_P2
2023/08/25 00:00:39;;;;;;;8.35;3.95;;;24.50;99.90;;;;;;4995619;28;20254;-72
2023/08/25 00:03:05;;;;;;;6.47;4.05;;;24.60;99.90;;;;;;4995969;28;20265;-72
2023/08/25 00:05:38;;;;;;;7.40;4.05;;;24.60;99.90;;;;;;4995332;28;20205;-72
2023/08/25 00:08:04;;;;;;;6.85;4.40;;;24.60;99.90;;;;;;4992374;28;20202;-73
2023/08/25 00:10:29;;;;;;;5.75;3.85;;;24.50;99.90;;;;;;4991416;28;20176;-72
2023/08/25 00:12:55;;;;;;;7.90;4.18;;;24.40;99.90;;;;;;4986993;28;20204;-72
2023/08/25 00:15:21;;;;;;;6.00;4.40;;;24.40;99.90;;;;;;4993928;28;20209;-72
2023/08/25 00:17:47;;;;;;;6.50;4.55;;;24.30;99.90;;;;;;4985003;28;20206;-71
2023/08/25 00:20:12;;;;;;;7.95;4.60;;;24.30;99.90;;;;;;4993918;28;20205;-72
2023/08/25 00:22:39;;;;;;;7.97;4.22;;;24.30;99.90;;;;;;4995648;28;20213;-72
2023/08/25 00:25:05;;;;;;;6.90;4.47;;;24.30;99.90;;;;;;5002047;28;20178;-72
2023/08/25 00:27:31;;;;;;;6.45;4.15;;;24.30;99.90;;;;;;5001122;28;20231;-72
2023/08/25 00:29:56;;;;;;;6.90;4.18;;;24.40;99.90;;;;;;4997698;28;20206;-72
2023/08/25 00:32:22;;;;;;;9.30;4.03;;;24.40;99.90;;;;;;5000375;28;20660;-72
2023/08/25 00:34:47;;;;;;;5.45;4.40;;;24.30;99.90;;;;;;4995102;28;20230;-72
2023/08/25 00:37:13;;;;;;;6.32;4.28;;;24.30;99.90;;;;;;4996625;28;20205;-73
2023/08/25 00:39:39;;;;;;;7.25;4.80;;;24.20;99.90;;;;;;4994226;28;20178;-72
2023/08/25 00:42:05;;;;;;;6.40;4.47;;;24.10;99.90;;;;;;4992294;28;20633;-72
2023/08/25 00:44:30;;;;;;;5.20;3.92;;;24.10;99.90;;;;;;4990681;28;20255;-72
2023/08/25 00:46:57;;;;;;;6.68;4.45;;;24.10;99.90;;;;;;4987758;28;20206;-72
2023/08/25 00:49:23;;;;;;;6.28;4.40;;;24.20;99.90;;;;;;4990042;28;20315;-73
2023/08/25 00:51:51;;;;;;;6.82;4.10;;;24.20;99.90;;;;;;4988762;28;20716;-72
2023/08/25 00:54:21;;;;;;;5.70;4.07;;;24.30;99.90;;;;;;4987360;28;20210;-72
2023/08/25 00:56:49;;;;;;;6.75;3.97;;;24.00;99.90;;;;;;4983293;28;20301;-71
2023/08/25 00:59:16;;;;;;;6.00;3.90;;;23.90;99.90;;;;;;4993961;28;20340;-72
2023/08/25 01:01:44;;;;;;;7.90;4.03;;;24.00;99.90;;;;;;5000149;28;20207;-73
2023/08/25 01:04:10;;;;;;;7.45;4.60;;;24.10;99.90;;;;;;5000927;28;20270;-72
2023/08/25 01:06:37;;;;;;;8.75;5.03;;;24.00;99.90;;;;;;4999467;28;20310;-72
2023/08/25 01:09:04;;;;;;;7.35;4.45;;;24.00;99.90;;;;;;4995172;28;20292;-72
2023/08/25 01:11:56;;;;;;;7.45;4.32;;;23.90;99.90;;;;;;4998405;28;20209;-72
2023/08/25 01:14:53;;;;;;;7.82;4.43;;;23.90;99.90;;;;;;4991763;28;20213;-71
2023/08/25 01:17:32;;;;;;;5.85;4.00;;;23.90;99.90;;;;;;4991123;28;20221;-71
2023/08/25 01:20:01;;;;;;;9.07;4.15;;;23.70;99.90;;;;;;4989537;28;20205;-71
2023/08/25 01:22:29;;;;;;;6.75;4.43;;;23.80;99.90;;;;;;4990909;28;20184;-71
2023/08/25 01:25:14;;;;;;;6.07;4.50;;;23.90;99.90;;;;;;4987413;28;20189;-73
2023/08/25 01:27:40;;;;;;;4.75;4.10;;;23.70;99.90;;;;;;4988127;28;20216;-73
2023/08/25 01:30:06;;;;;;;5.07;4.40;;;23.80;99.90;;;;;;4985141;28;20206;-71
2023/08/25 01:32:31;;;;;;;7.32;4.35;;;23.80;99.90;;;;;;4985892;28;20723;-71
2023/08/25 01:34:57;;;;;;;6.90;4.45;;;23.70;99.90;;;;;;4985433;28;20301;-71
2023/08/25 01:37:32;;;;;;;4.75;4.10;;;23.70;99.90;;;;;;5003178;28;20200;-72
2023/08/25 01:40:05;;;;;;;5.55;4.40;;;23.70;99.90;;;;;;4995650;28;20173;-73
2023/08/25 01:42:33;;;;;;;6.97;4.63;;;23.70;99.90;;;;;;4995255;28;20715;-70
2023/08/25 01:44:59;;;;;;;6.50;4.53;;;23.80;99.90;;;;;;4993973;28;20210;-71
2023/08/25 01:47:28;;;;;;;6.13;4.72;;;23.70;99.90;;;;;;4992453;28;20288;-71
2023/08/25 01:49:56;;;;;;;7.00;4.97;;;23.60;99.90;;;;;;4993339;28;20700;-71
2023/08/25 01:52:22;;;;;;;6.75;4.35;;;23.60;99.90;;;;;;4991424;28;20212;-72
2023/08/25 01:54:50;;;;;;;6.50;4.72;;;23.70;99.90;;;;;;4991640;28;20170;-71
2023/08/25 01:57:16;;;;;;;5.45;4.30;;;23.70;99.90;;;;;;4990861;28;20224;-72
2023/08/25 01:59:41;;;;;;;7.88;4.63;;;23.60;99.90;;;;;;4989437;28;20290;-72
2023/08/25 02:02:07;;;;;;;4.95;4.53;;;23.70;99.90;;;;;;4986777;28;20275;-71
2023/08/25 02:04:33;;;;;;;5.72;5.00;;;23.80;99.90;;;;;;4993647;28;20259;-72
2023/08/25 02:06:58;;;;;;;7.55;4.43;;;23.80;99.90;;;;;;4984268;28;20198;-72
2023/08/25 02:09:24;;;;;;;6.55;4.95;;;23.80;99.90;;;;;;4985383;28;20586;-72
2023/08/25 02:11:49;;;;;;;6.55;4.82;;;23.80;99.90;;;;;;4981903;28;20252;-72
2023/08/25 02:14:15;;;;;;;8.32;4.53;;;23.80;99.90;;;;;;4997996;28;20209;-72
2023/08/25 02:16:41;;;;;;;5.43;4.38;;;23.80;99.90;;;;;;4999605;28;20699;-71
2023/08/25 02:19:06;;;;;;;6.18;4.38;;;23.80;99.90;;;;;;4997458;28;20206;-72
2023/08/25 02:21:32;;;;;;;4.80;4.30;;;23.80;99.90;;;;;;4999123;28;20228;-72
2023/08/25 02:23:57;;;;;;;6.25;4.50;;;23.70;99.90;;;;;;4991437;28;20248;-70
2023/08/25 02:26:23;;;;;;;4.68;4.18;;;23.70;99.90;;;;;;4994788;28;20213;-72
2023/08/25 02:28:48;;;;;;;6.20;4.75;;;23.70;99.90;;;;;;4992853;28;20225;-71
2023/08/25 02:31:14;;;;;;;6.60;4.65;;;23.80;99.90;;;;;;4990498;28;20206;-72
2023/08/25 02:33:40;;;;;;;7.18;4.90;;;23.70;99.90;;;;;;4984887;28;20190;-70
2023/08/25 02:36:06;;;;;;;6.32;4.70;;;23.80;99.90;;;;;;4979403;28;20583;-72
2023/08/25 02:38:31;;;;;;;6.28;4.97;;;23.90;99.90;;;;;;4978929;28;20239;-72
2023/08/25 02:40:57;;;;;;;6.25;4.40;;;23.90;99.90;;;;;;4979650;28;20210;-72
2023/08/25 02:43:22;;;;;;;7.05;4.75;;;23.90;99.90;;;;;;4982805;28;20182;-72
2023/08/25 02:45:48;;;;;;;7.35;4.32;;;24.00;99.90;;;;;;4972552;28;20194;-71
2023/08/25 02:48:14;;;;;;;8.18;4.97;;;24.00;99.90;;;;;;4977277;28;20214;-71
2023/08/25 02:50:39;;;;;;;5.93;5.32;;;23.80;99.90;;;;;;4986171;28;20768;-72
2023/08/25 02:53:05;;;;;;;9.70;4.95;;;23.70;99.90;;;;;;4980804;28;20217;-71
2023/08/25 02:55:31;;;;;;;7.65;4.85;;;23.80;99.90;;;;;;4978183;28;20259;-72
2023/08/25 02:57:56;;;;;;;8.65;5.47;;;23.70;99.90;;;;;;4978361;28;20182;-72
2023/08/25 03:00:25;;;;;;;6.32;4.95;;;23.70;99.90;;;;;;4978508;28;20221;-72
2023/08/25 03:02:52;;;;;;;7.07;4.75;;;23.60;99.90;;;;;;4978209;28;20206;-72
2023/08/25 03:05:18;;;;;;;7.18;4.85;;;23.60;99.90;;;;;;4980974;28;20229;-72
2023/08/25 03:07:44;;;;;;;7.65;4.95;;;23.50;99.90;;;;;;4983286;28;20240;-72
2023/08/25 03:10:10;;;;;;;6.47;5.32;;;23.50;99.90;;;;;;4975583;28;20638;-72
2023/08/25 03:12:37;;;;;;;4.82;4.38;;;23.60;99.90;;;;;;4975728;28;20198;-72
2023/08/25 03:15:03;;;;;;;10.65;5.05;;;23.60;99.90;;;;;;4973472;28;20206;-72
2023/08/25 03:17:28;;;;;;;9.73;5.40;;;23.60;99.90;;;;;;4978795;28;20220;-72
2023/08/25 03:19:54;;;;;;;6.25;5.13;;;23.60;99.90;;;;;;4977130;28;20282;-71
2023/08/25 03:22:19;;;;;;;6.70;5.20;;;23.60;99.90;;;;;;4976895;28;20183;-72
2023/08/25 03:24:45;;;;;;;7.47;5.47;;;23.50;99.90;;;;;;4972099;28;20317;-72
2023/08/25 03:27:11;;;;;;;7.50;5.35;;;23.40;99.90;;;;;;4977752;28;20229;-71
2023/08/25 03:29:36;;;;;;;7.10;5.35;;;23.30;99.90;;;;;;4985261;28;20204;-72
2023/08/25 03:32:02;;;;;;;6.57;5.25;;;23.30;99.90;;;;;;4988723;28;20308;-72
2023/08/25 03:34:29;;;;;;;10.20;5.40;;;23.40;99.90;;;;;;4980467;28;20213;-72
2023/08/25 03:36:55;;;;;;;11.18;5.68;;;23.40;99.90;;;;;;4978223;28;20204;-72
2023/08/25 03:39:20;;;;;;;7.63;5.60;;;23.30;99.90;;;;;;4984063;28;20206;-72
2023/08/25 03:41:46;;;;;;;8.38;5.20;;;23.10;99.90;;;;;;4981419;28;20202;-70
2023/08/25 03:44:12;;;;;;;6.47;5.20;;;23.10;99.90;;;;;;4982511;28;20240;-70
2023/08/25 03:46:39;;;;;;;6.50;5.32;;;23.20;99.90;;;;;;4984840;28;20767;-72
2023/08/25 03:49:06;;;;;;;5.57;5.05;;;23.20;99.90;;;;;;4980378;28;20266;-70
2023/08/25 03:51:31;;;;;;;10.23;6.22;;;23.30;99.90;;;;;;4982388;28;20302;-72
2023/08/25 03:53:57;;;;;;;6.20;5.18;;;23.30;99.90;;;;;;4975471;28;20226;-72
2023/08/25 03:56:24;;;;;;;9.13;6.20;;;23.20;99.90;;;;;;4973429;28;21000;-72
2023/08/25 03:58:49;;;;;;;6.63;5.68;;;23.30;99.90;;;;;;4979183;28;20206;-72
2023/08/25 04:01:15;;;;;;;7.45;5.97;;;23.20;99.90;;;;;;4971421;28;20233;-72
2023/08/25 04:03:41;;;;;;;6.13;5.53;;;23.20;99.90;;;;;;4982267;28;20170;-72
2023/08/25 04:06:06;;;;;;;7.88;5.85;;;23.10;99.90;;;;;;4985459;28;20244;-72
2023/08/25 04:08:32;;;;;;;6.30;5.70;;;23.20;99.90;;;;;;4980529;28;20336;-71
2023/08/25 04:10:58;;;;;;;6.78;6.07;;;23.30;99.90;;;;;;4983456;28;20331;-71
2023/08/25 04:13:24;;;;;;;8.93;5.93;;;23.20;99.90;;;;;;4984304;28;20277;-72
2023/08/25 04:16:01;;;;;;;8.35;5.75;;;23.20;99.90;;;;;;4977182;28;20193;-71
2023/08/25 04:18:27;;;;;;;9.88;6.10;;;23.20;99.90;;;;;;4986109;28;20209;-71
2023/08/25 04:20:53;;;;;;;9.20;5.82;;;23.20;99.90;;;;;;4991668;28;20205;-71
2023/08/25 04:23:18;;;;;;;7.40;5.70;;;23.20;99.90;;;;;;4985257;28;20712;-71
2023/08/25 04:25:44;;;;;;;5.90;5.30;;;23.10;99.90;;;;;;4986733;28;20338;-72
2023/08/25 04:28:10;;;;;;;7.45;5.60;;;23.20;99.90;;;;;;4978343;28;20237;-72
2023/08/25 04:30:36;;;;;;;5.28;4.57;;;23.20;99.90;;;;;;4980163;28;20311;-72
2023/08/25 04:33:02;;;;;;;5.78;5.15;;;23.40;99.90;;;;;;4977607;28;20269;-71
2023/08/25 04:35:28;;;;;;;7.90;5.93;;;23.50;99.90;;;;;;4973489;28;20697;-71
2023/08/25 04:37:53;;;;;;;10.45;5.90;;;23.40;99.90;;;;;;4974647;28;20222;-71
2023/08/25 04:40:20;;;;;;;6.90;5.60;;;23.70;99.90;;;;;;4982228;28;20614;-71
2023/08/25 04:42:46;;;;;;;7.45;5.85;;;23.60;99.90;;;;;;4984999;28;20204;-70
2023/08/25 04:45:12;;;;;;;9.13;5.63;;;23.90;99.90;;;;;;4980435;28;20241;-71
2023/08/25 04:47:38;;;;;;;7.30;6.10;;;23.90;99.90;;;;;;4988795;28;20213;-71
2023/08/25 04:50:07;;;;;;;6.97;5.55;;;23.90;99.90;;;;;;4987438;28;20203;-71
2023/08/25 04:52:36;;;;;;;7.28;5.93;;;24.20;99.90;;;;;;4989203;28;20221;-72
2023/08/25 04:55:05;;;;;;;8.80;5.85;;;24.30;99.90;;;;;;4993030;28;20527;-71
2023/08/25 04:57:31;;;;;;;6.22;5.07;;;24.10;99.90;;;;;;4991998;28;20222;-71
2023/08/25 04:59:57;;;;;;;8.40;5.47;;;24.90;99.90;;;;;;4985007;28;20202;-71
2023/08/25 05:02:23;;;;;;;6.25;5.65;;;25.60;99.90;;;;;;4988162;28;20214;-71
2023/08/25 05:04:49;;;;;;;11.23;5.30;;;25.50;99.90;;;;;;4997091;28;20241;-71
2023/08/25 05:07:15;;;;;;;9.57;5.32;;;25.10;99.90;;;;;;4990051;28;20245;-71
2023/08/25 05:09:41;;;;;;;7.43;5.50;;;24.90;99.90;;;;;;4985698;28;20182;-71
2023/08/25 05:12:07;;;;;;;8.00;5.30;;;24.40;99.90;;;;;;4979067;28;20218;-71
2023/08/25 05:14:33;;;;;;;5.82;5.20;;;24.40;99.90;;;;;;4982236;28;20260;-72
2023/08/25 05:16:59;;;;;;;10.55;6.03;;;24.60;99.90;;;;;;4994748;28;20596;-71
2023/08/25 05:19:24;;;;;;;8.50;5.90;;;24.70;99.90;;;;;;4991956;28;20884;-71
2023/08/25 05:21:50;;;;;;;11.90;7.85;;;25.00;99.90;;;;;;4990226;28;20177;-71
2023/08/25 05:24:26;;;;;;;10.68;6.70;;;25.00;99.90;;;;;;4992581;28;20213;-71
2023/08/25 05:26:53;;;;;;;7.05;5.82;;;25.60;99.90;;;;;;4989866;28;20643;-71
2023/08/25 05:29:18;;;;;;;8.55;5.90;;;27.00;99.90;;;;;;4986901;28;20268;-72
2023/08/25 05:31:44;;;;;;;7.75;6.05;;;27.80;99.90;;;;;;4994360;28;20683;-72
2023/08/25 05:34:10;;;;;;;7.85;5.18;;;29.30;99.90;;;;;;4992464;28;20256;-73
2023/08/25 05:36:35;;;;;;;7.22;5.70;;;30.50;99.90;;;;;;4992046;28;20203;-72
2023/08/25 05:39:02;;;;;;;9.18;5.35;;;29.50;99.90;;;;;;4985516;28;20302;-72
2023/08/25 05:41:27;;;;;;;6.20;5.15;;;28.70;99.90;;;;;;4986261;28;20623;-71
2023/08/25 05:43:53;;;;;;;11.45;5.78;;;27.40;99.90;;;;;;4988845;28;20198;-71
2023/08/25 05:46:19;;;;;;;9.20;6.00;;;27.00;99.90;;;;;;4979442;28;20202;-72
2023/08/25 05:48:44;;;;;;;10.40;6.45;;;26.70;99.90;;;;;;4982600;28;20174;-72
2023/08/25 05:51:10;;;;;;;8.75;5.65;;;26.30;99.90;;;;;;4977560;28;20852;-71
2023/08/25 05:53:35;;;;;;;9.02;6.47;;;28.10;99.90;;;;;;4987200;28;20633;-73
2023/08/25 05:56:01;;;;;;;13.95;5.65;;;30.00;99.90;;;;;;4995077;28;20209;-72
2023/08/25 05:58:27;;;;;;;11.82;5.72;;;32.00;99.90;;;;;;4986875;28;20173;-72
2023/08/25 06:00:53;;;;;;;13.38;6.38;;;33.10;99.90;;;;;;4999845;28;20177;-72
2023/08/25 06:03:19;;;;;;;12.63;6.03;;;34.00;99.90;;;;;;4995499;28;20760;-72
2023/08/25 06:05:46;;;;;;;5.95;5.30;;;35.00;99.90;;;;;;4995922;28;20394;-72
2023/08/25 06:08:12;;;;;;;15.20;6.40;;;35.50;99.90;;;;;;4992393;28;20300;-72
2023/08/25 06:10:38;;;;;;;13.45;5.60;;;35.30;99.90;;;;;;4986610;28;20752;-72
2023/08/25 06:13:04;;;;;;;7.00;5.20;;;36.10;99.90;;;;;;4991829;28;20205;-72
2023/08/25 06:15:30;;;;;;;8.38;5.28;;;36.10;98.60;;;;;;4988223;28;20249;-72
2023/08/25 06:17:55;;;;;;;7.97;4.90;;;35.90;98.40;;;;;;4993841;28;20312;-72
2023/08/25 06:20:21;;;;;;;9.48;5.40;;;36.30;97.30;;;;;;4980575;28;20264;-72
2023/08/25 06:22:47;;;;;;;7.75;4.78;;;37.40;95.70;;;;;;4983326;28;20211;-70
2023/08/25 06:25:13;;;;;;;7.05;4.78;;;37.00;94.30;;;;;;4982417;28;20181;-71
2023/08/25 06:27:38;;;;;;;7.05;5.43;;;37.40;93.70;;;;;;4979186;28;20301;-70
2023/08/25 06:30:04;;;;;;;6.63;5.97;;;37.60;92.90;;;;;;4981251;28;20233;-70
2023/08/25 06:32:30;;;;;;;6.97;5.47;;;37.70;92.00;;;;;;4987783;28;20228;-71
2023/08/25 06:34:56;;;;;;;6.22;4.90;;;37.60;91.40;;;;;;4985657;28;20212;-70
2023/08/25 06:37:21;;;;;;;6.22;5.65;;;37.70;91.70;;;;;;4996235;28;20259;-71
2023/08/25 06:39:47;;;;;;;6.65;5.95;;;38.10;90.70;;;;;;4996929;28;20187;-70
2023/08/25 06:42:13;;;;;;;6.55;5.57;;;38.10;90.30;;;;;;4990685;28;20745;-70
2023/08/25 06:44:40;;;;;;;9.88;5.65;;;38.60;88.80;;;;;;4986466;28;20217;-70
2023/08/25 06:47:06;;;;;;;9.32;5.72;;;38.30;88.60;;;;;;4986369;28;20216;-70
2023/08/25 06:49:32;;;;;;;7.25;5.28;;;39.10;87.90;;;;;;4983256;28;20222;-69
2023/08/25 06:51:57;;;;;;;6.30;5.80;;;39.20;85.60;;;;;;4989418;28;20545;-70
2023/08/25 06:54:24;;;;;;;8.05;5.35;;;39.70;84.30;;;;;;4985469;28;20703;-70
2023/08/25 06:56:50;;;;;;;6.68;6.00;;;39.70;83.30;;;;;;4987775;28;20711;-70
2023/08/25 06:59:16;;;;;;;6.07;5.47;;;39.20;83.80;;;;;;4980310;28;20327;-70
2023/08/25 07:01:42;;;;;;;6.05;5.45;;;39.40;83.20;;;;;;4978039;28;20799;-70
2023/08/25 07:04:08;;;;;;;6.88;5.25;;;40.50;81.20;;;;;;4983493;28;20199;-70
2023/08/25 07:06:34;;;;;;;5.32;4.82;;;40.30;79.70;;;;;;4979534;28;20221;-70
2023/08/25 07:09:00;;;;;;;5.78;5.28;;;40.80;78.40;;;;;;5001579;28;20224;-71
2023/08/25 07:11:26;;;;;;;5.78;5.22;;;40.50;77.80;;;;;;4989497;28;20264;-71
2023/08/25 07:13:52;;;;;;;7.05;5.47;;;40.10;78.30;;;;;;4998832;28;20204;-71
2023/08/25 07:16:18;;;;;;;8.35;5.60;;;40.30;79.30;;;;;;4995157;28;20604;-71
2023/08/25 07:18:43;;;;;;;6.28;5.68;;;40.90;77.90;;;;;;4986627;28;20695;-71
2023/08/25 07:21:10;;;;;;;6.70;5.82;;;41.10;77.40;;;;;;4991692;28;20586;-71
2023/08/25 07:23:36;;;;;;;6.47;5.88;;;41.30;76.60;;;;;;4989701;28;20209;-71
2023/08/25 07:26:02;;;;;;;6.65;6.07;;;41.40;77.30;;;;;;4985552;28;20219;-71
2023/08/25 07:28:27;;;;;;;6.45;5.78;;;41.40;76.20;;;;;;4982342;28;20542;-71
2023/08/25 07:30:53;;;;;;;6.50;5.97;;;41.40;76.40;;;;;;4984084;28;20544;-71
2023/08/25 07:33:19;;;;;;;8.38;7.32;;;41.40;75.80;;;;;;4981028;28;20205;-71
2023/08/25 07:35:46;;;;;;;6.93;6.25;;;41.80;75.20;;;;;;4978324;28;20252;-71
2023/08/25 07:38:12;;;;;;;7.88;6.55;;;42.20;72.90;;;;;;4980470;28;20337;-71
2023/08/25 07:40:38;;;;;;;8.75;6.22;;;41.80;73.20;;;;;;4977150;28;20234;-71
2023/08/25 07:43:03;;;;;;;7.43;6.63;;;41.70;72.40;;;;;;4987854;28;20180;-70
2023/08/25 07:45:30;;;;;;;7.32;6.30;;;41.60;72.60;;;;;;4989936;28;20778;-70
2023/08/25 07:47:59;;;;;;;7.65;6.18;;;41.70;72.10;;;;;;4991968;28;20713;-70
2023/08/25 07:50:26;;;;;;;8.55;6.88;;;41.20;73.90;;;;;;4986031;28;20210;-71
2023/08/25 07:52:52;;;;;;;9.07;6.78;;;41.10;73.20;;;;;;4989757;28;20326;-72
2023/08/25 07:55:18;;;;;;;6.05;5.60;;;41.10;72.90;;;;;;4987433;28;20688;-71
2023/08/25 07:57:46;;;;;;;7.18;6.30;;;41.00;72.30;;;;;;4995434;28;20228;-72
2023/08/25 08:00:15;;;;;;;6.45;5.80;;;41.30;72.60;;;;;;4995922;28;20691;-71
2023/08/25 08:02:45;;;;;;;10.07;6.30;;;41.20;72.20;;;;;;4992798;28;20213;-71
2023/08/25 08:05:11;;;;;;;10.15;6.60;;;41.10;72.80;;;;;;4999840;28;20216;-71
2023/08/25 08:07:37;;;;;;;6.25;5.65;;;41.10;72.50;;;;;;4989583;28;20571;-70
2023/08/25 08:10:05;;;;;;;8.95;8.05;;;40.80;72.60;;;;;;4994695;28;20184;-71
2023/08/25 08:12:31;;;;;;;10.73;6.85;;;40.80;72.50;;;;;;4987198;28;20213;-72
2023/08/25 08:14:56;;;;;;;6.20;5.55;;;40.70;72.30;;;;;;4983329;28;20291;-71
2023/08/25 08:17:22;;;;;;;9.35;5.95;;;40.00;73.70;;;;;;4979572;28;20561;-71
2023/08/25 08:19:48;;;;;;;7.80;5.43;;;40.60;73.70;;;;;;4980431;28;20202;-71
2023/08/25 08:22:14;;;;;;;8.10;5.78;;;40.70;72.90;;;;;;4989504;28;20180;-71
2023/08/25 08:24:41;;;;;;;9.38;7.95;;;40.70;73.10;;;;;;4992526;28;20182;-71
2023/08/25 08:27:07;;;;;;;8.32;5.85;;;40.80;73.20;;;;;;4986917;28;20694;-71
2023/08/25 08:29:33;;;;;;;8.27;6.32;;;41.00;72.40;;;;;;4997480;28;20227;-71
2023/08/25 08:31:58;;;;;;;10.23;6.00;;;40.90;71.50;;;;;;4997528;28;20207;-71
2023/08/25 08:34:24;;;;;;;9.40;7.25;;;40.30;73.00;;;;;;4995996;28;20181;-71
2023/08/25 08:36:50;;;;;;;10.52;7.88;;;40.80;72.70;;;;;;4993508;28;20578;-71
2023/08/25 08:39:16;;;;;;;6.90;5.38;;;40.00;72.90;;;;;;4994248;28;20209;-71
2023/08/25 08:41:43;;;;;;;10.18;6.60;;;39.30;74.40;;;;;;4990303;28;20205;-71
2023/08/25 08:44:14;;;;;;;5.95;5.38;;;38.70;75.60;;;;;;4992019;28;20280;-70
2023/08/25 08:46:42;;;;;;;10.68;5.57;;;38.90;76.00;;;;;;4987362;28;20233;-69
2023/08/25 08:49:08;;;;;;;6.70;5.25;;;39.00;75.50;;;;;;4990155;28;20557;-71
2023/08/25 08:51:35;;;;;;;7.03;4.78;;;38.90;75.80;;;;;;4981254;28;20319;-71
2023/08/25 08:54:04;;;;;;;6.05;4.72;;;39.20;76.40;;;;;;4979713;28;20201;-69
2023/08/25 08:56:31;;;;;;;6.80;5.05;;;39.20;75.50;;;;;;4982344;28;20218;-72
2023/08/25 08:58:57;;;;;;;5.03;4.50;;;39.20;76.00;;;;;;5002288;28;20311;-71
2023/08/25 09:01:23;;;;;;;5.28;4.22;;;38.90;75.40;;;;;;4994826;28;20264;-71
2023/08/25 09:03:51;;;;;;;5.97;5.38;;;38.70;76.00;;;;;;4997758;28;20771;-71
2023/08/25 09:06:17;;;;;;;7.72;4.82;;;39.20;76.20;;;;;;4992229;28;20300;-71
2023/08/25 09:08:43;;;;;;;6.13;5.25;;;39.40;75.60;;;;;;4995257;28;20304;-70
2023/08/25 09:11:09;;;;;;;9.35;4.95;;;39.20;75.50;;;;;;4993206;28;20213;-70
2023/08/25 09:13:35;;;;;;;7.88;4.93;;;38.90;76.30;;;;;;4990743;28;20726;-70
2023/08/25 09:16:12;;;;;;;7.80;4.90;;;38.60;77.40;;;;;;4987979;28;20197;-70
2023/08/25 09:18:38;;;;;;;7.05;5.28;;;38.40;78.00;;;;;;4990546;28;20213;-71
2023/08/25 09:21:19;;;;;;;8.27;5.18;;;37.80;79.50;;;;;;4991067;28;20267;-70
2023/08/25 09:23:59;;;;;;;8.20;5.60;;;38.00;79.70;;;;;;4986635;28;20297;-72
2023/08/25 09:26:26;;;;;;;8.07;4.82;;;37.90;80.50;;;;;;4979820;28;20205;-71
2023/08/25 09:28:53;;;;;;;6.63;4.97;;;37.60;79.60;;;;;;4981221;28;20256;-70
2023/08/25 09:31:28;;;;;;;5.68;4.75;;;37.30;80.50;;;;;;4981081;28;20281;-71
2023/08/25 09:34:09;;;;;;;4.95;4.38;;;37.10;81.20;;;;;;4989098;28;20180;-70
2023/08/25 09:36:53;;;;;;;5.68;4.22;;;36.80;81.40;;;;;;4999760;28;20221;-71
2023/08/25 09:39:19;;;;;;;9.98;4.25;;;36.40;82.40;;;;;;4991958;28;20283;-70
2023/08/25 09:41:46;;;;;;;5.80;4.57;;;35.90;82.50;;;;;;4994077;28;20212;-70
2023/08/25 09:44:12;;;;;;;10.88;4.20;;;36.10;83.30;;;;;;5000899;28;20212;-70
2023/08/25 09:46:38;;;;;;;6.68;3.97;;;36.10;82.70;;;;;;4993175;28;20209;-71
2023/08/25 09:49:12;;;;;;;7.40;3.75;;;36.10;82.90;;;;;;4990054;28;20183;-71
2023/08/25 09:51:37;;;;;;;12.02;5.63;;;36.00;82.80;;;;;;4985670;28;20222;-70
2023/08/25 09:54:10;;;;;;;9.00;5.25;;;36.30;82.80;;;;;;4995177;28;20276;-70
2023/08/25 09:56:38;;;;;;;5.63;3.83;;;36.00;82.70;;;;;;4978364;28;20218;-71
2023/08/25 09:59:04;;;;;;;6.88;4.15;;;35.70;83.10;;;;;;4984629;28;20268;-71
2023/08/25 10:01:40;;;;;;;8.13;4.55;;;35.70;83.90;;;;;;4982829;28;20901;-71
2023/08/25 10:04:09;;;;;;;4.47;3.30;;;35.20;85.10;;;;;;4985144;28;20204;-71
2023/08/25 10:06:39;;;;;;;4.22;3.58;;;35.00;86.40;;;;;;4982976;28;20273;-71
2023/08/25 10:09:06;;;;;;;9.45;4.60;;;34.90;86.60;;;;;;4980052;28;20718;-70
2023/08/25 10:11:44;;;;;;;4.15;3.80;;;34.80;87.10;;;;;;4987864;28;20221;-70
2023/08/25 10:14:12;;;;;;;5.25;3.90;;;34.50;87.70;;;;;;4998700;28;20255;-71
2023/08/25 10:16:47;;;;;;;5.85;3.80;;;34.30;88.40;;;;;;4993191;28;20210;-71
2023/08/25 10:19:14;;;;;;;7.25;4.00;;;34.40;89.40;;;;;;4986139;28;20213;-72
2023/08/25 10:21:48;;;;;;;8.48;4.35;;;34.20;89.40;;;;;;4983824;28;20174;-71
2023/08/25 10:24:17;;;;;;;6.60;4.45;;;34.40;89.00;;;;;;4985191;28;20209;-71
2023/08/25 10:26:44;;;;;;;10.05;6.25;;;34.30;89.00;;;;;;4991986;28;20213;-70
2023/08/25 10:29:11;;;;;;;8.23;5.82;;;33.90;89.20;;;;;;4993802;28;20205;-71
2023/08/25 10:31:48;;;;;;;9.18;5.28;;;33.90;89.70;;;;;;4984312;28;20226;-72
2023/08/25 10:34:43;;;;;;;7.68;4.50;;;33.70;90.00;;;;;;4988387;28;20180;-71
2023/08/25 10:37:13;;;;;;;5.97;4.88;;;33.50;90.30;;;;;;4984037;28;20714;-71
2023/08/25 10:39:48;;;;;;;6.43;3.85;;;33.20;90.30;;;;;;4986350;28;20205;-71
2023/08/25 10:42:25;;;;;;;5.10;3.65;;;32.60;90.60;;;;;;4981863;28;20209;-73
2023/08/25 10:45:06;;;;;;;5.00;3.97;;;32.90;90.50;;;;;;4981791;28;20210;-70
2023/08/25 10:47:32;;;;;;;5.95;3.88;;;32.70;90.50;;;;;;4982785;28;20202;-71
2023/08/25 10:50:03;;;;;;;8.60;6.10;;;32.40;91.10;;;;;;4989890;28;20734;-71
2023/08/25 10:52:29;;;;;;;9.73;4.97;;;32.50;91.40;;;;;;4983192;28;20750;-71
2023/08/25 10:54:55;;;;;;;5.53;4.35;;;32.30;91.70;;;;;;4994410;28;20178;-72
2023/08/25 10:57:26;;;;;;;4.07;3.67;;;32.30;91.80;;;;;;4997532;28;20319;-71
2023/08/25 11:00:23;;;;;;;4.35;3.92;;;32.20;92.20;;;;;;4993591;28;20201;-70
2023/08/25 11:02:48;;;;;;;7.10;4.15;;;32.20;92.60;;;;;;4984849;28;20617;-70
2023/08/25 11:05:28;;;;;;;6.38;3.95;;;32.10;92.80;;;;;;4992267;28;20217;-71
2023/08/25 11:07:55;;;;;;;6.15;5.05;;;31.90;92.80;;;;;;4986660;28;20236;-71
2023/08/25 11:10:26;;;;;;;7.47;4.78;;;32.00;93.00;;;;;;4985566;28;20814;-72
2023/08/25 11:12:53;;;;;;;5.93;3.92;;;32.00;93.30;;;;;;4984750;28;20210;-70
2023/08/25 11:15:23;;;;;;;6.20;4.47;;;32.00;93.60;;;;;;4979935;28;20251;-72
2023/08/25 11:17:49;;;;;;;4.43;3.95;;;32.20;93.80;;;;;;4983041;28;20213;-71
2023/08/25 11:20:18;;;;;;;5.38;4.00;;;32.60;93.60;;;;;;4984138;28;20271;-72
2023/08/25 11:23:11;;;;;;;6.28;3.80;;;32.90;93.30;;;;;;4977873;28;20210;-72
2023/08/25 11:25:36;;;;;;;6.97;3.97;;;33.10;93.00;;;;;;4984102;28;20209;-72
2023/08/25 11:28:03;;;;;;;5.10;3.70;;;33.50;92.70;;;;;;4989785;28;20184;-72
2023/08/25 11:30:29;;;;;;;6.40;3.85;;;33.60;92.10;;;;;;4998921;28;20347;-72
2023/08/25 11:32:54;;;;;;;5.80;4.05;;;33.60;92.10;;;;;;4993965;28;20299;-70
2023/08/25 11:35:20;;;;;;;3.42;3.05;;;33.70;92.20;;;;;;4990211;28;20205;-72
2023/08/25 11:37:46;;;;;;;4.82;3.13;;;33.50;91.90;;;;;;4992982;28;20221;-71
2023/08/25 11:40:17;;;;;;;7.50;2.60;;;33.10;91.60;;;;;;4991223;28;20817;-73
2023/08/25 11:42:43;;;;;;;2.83;2.50;;;33.10;91.80;;;;;;4988063;28;20220;-70
2023/08/25 11:45:10;;;;;;;6.43;3.15;;;33.00;91.90;;;;;;4988017;28;20629;-71
2023/08/25 11:47:36;;;;;;;5.10;2.95;;;33.10;91.80;;;;;;4985300;28;20915;-71
2023/08/25 11:50:04;;;;;;;4.35;2.90;;;32.90;92.00;;;;;;4980957;28;20216;-71
2023/08/25 11:52:32;;;;;;;5.22;2.83;;;32.50;92.40;;;;;;4985610;28;20260;-72
2023/08/25 11:54:58;;;;;;;4.75;3.30;;;32.30;92.50;;;;;;4981755;28;20186;-70
2023/08/25 11:57:37;;;;;;;3.40;2.90;;;32.40;93.00;;;;;;4981050;28;20222;-71
2023/08/25 12:00:07;;;;;;;4.28;2.80;;;32.40;93.10;;;;;;4980630;28;20210;-71
2023/08/25 12:02:34;;;;;;;6.80;3.20;;;32.30;93.20;;;;;;4988213;28;20735;-71
2023/08/25 12:05:03;;;;;;;4.57;3.08;;;32.40;93.20;;;;;;4996853;28;20213;-70
2023/08/25 12:07:30;;;;;;;5.95;3.25;;;32.50;93.00;;;;;;4998318;28;20196;-71
2023/08/25 12:09:57;;;;;;;3.67;3.22;;;33.00;93.10;;;;;;4987910;28;20559;-70
2023/08/25 12:12:23;;;;;;;3.85;3.05;;;33.30;92.80;;;;;;4990625;28;20213;-70
2023/08/25 12:14:53;;;;;;;6.72;3.70;;;32.90;92.90;;;;;;4985825;28;20208;-70
2023/08/25 12:17:27;;;;;;;5.40;3.53;;;32.80;92.90;;;;;;4992861;28;20224;-72
2023/08/25 12:19:54;;;;;;;4.82;3.17;;;32.90;93.40;;;;;;4989504;28;20225;-71
2023/08/25 12:22:20;;;;;;;5.90;3.47;;;32.80;93.60;;;;;;4988053;28;20189;-71
2023/08/25 12:24:46;;;;;;;6.97;3.92;;;32.90;93.70;;;;;;4980051;28;20181;-70
2023/08/25 12:27:12;;;;;;;3.85;3.45;;;32.80;94.10;;;;;;4985276;28;20222;-71
2023/08/25 12:29:37;;;;;;;6.38;3.75;;;32.90;94.20;;;;;;4984609;28;20563;-71
2023/08/25 12:32:04;;;;;;;5.72;3.90;;;32.90;94.20;;;;;;4988162;28;20268;-71
2023/08/25 12:34:30;;;;;;;8.80;4.47;;;32.60;94.40;;;;;;4991730;28;20232;-72
2023/08/25 12:36:56;;;;;;;4.80;4.30;;;32.20;95.00;;;;;;4979765;28;20267;-71
2023/08/25 12:39:22;;;;;;;5.00;4.20;;;32.00;95.20;;;;;;4990622;28;20685;-71
2023/08/25 12:41:48;;;;;;;6.10;4.63;;;31.30;96.10;;;;;;4989920;28;20285;-71
2023/08/25 12:44:13;;;;;;;4.95;4.05;;;31.20;96.80;;;;;;4997481;28;20791;-71
2023/08/25 12:46:39;;;;;;;8.90;4.30;;;31.70;96.70;;;;;;4987132;28;20293;-72